createdAt,value
2018-05-06T06:19:38.309Z,2.90
2018-05-06T06:20:38.978Z,3.60
2018-05-06T06:21:39.593Z,3.80
2018-05-06T06:22:40.184Z,3.60
2018-05-06T06:23:40.811Z,3.60
2018-05-06T06:24:41.930Z,3.70
2018-05-06T06:25:42.490Z,3.90
2018-05-06T06:26:43.074Z,3.50
2018-05-06T06:27:43.657Z,3.80
2018-05-06T06:29:44.520Z,3.60
2018-05-06T06:30:45.111Z,3.40
2018-05-06T06:31:45.675Z,3.80
2018-05-06T06:32:46.246Z,3.60
2018-05-06T06:33:46.790Z,3.90
2018-05-06T06:34:47.367Z,3.50
2018-05-06T06:35:47.929Z,3.60
2018-05-06T06:36:48.556Z,3.80
2018-05-06T06:37:49.129Z,3.50
2018-05-06T06:38:49.715Z,3.30
2018-05-06T06:39:50.281Z,3.50
2018-05-06T06:40:50.845Z,3.70
2018-05-06T06:41:51.412Z,3.60
2018-05-06T06:42:52.012Z,3.30
2018-05-06T06:43:52.662Z,3.30
2018-05-06T06:44:53.277Z,3.40
2018-05-06T06:45:53.830Z,3.60
2018-05-06T06:46:54.446Z,3.60
2018-05-06T06:48:55.281Z,3.40
2018-05-06T06:50:56.116Z,3.30
2018-05-06T06:51:56.723Z,3.40
2018-05-06T06:52:57.279Z,3.20
2018-05-06T06:53:57.844Z,3.60
2018-05-06T06:54:58.438Z,3.60
2018-05-06T06:55:59.014Z,3.50
2018-05-06T06:56:59.645Z,3.20
2018-05-06T06:58:00.299Z,3.30
2018-05-06T06:59:00.885Z,3.40
2018-05-06T07:00:01.480Z,3.50
2018-05-06T07:01:02.106Z,3.60
2018-05-06T07:02:02.680Z,3.50
2018-05-06T07:03:03.260Z,3.40
2018-05-06T07:05:04.111Z,3.20
2018-05-06T07:06:04.699Z,3.40
2018-05-06T07:07:05.252Z,3.60
2018-05-06T07:09:06.094Z,3.50
2018-05-06T07:11:06.932Z,3.70
2018-05-06T07:12:07.510Z,3.20
2018-05-06T07:13:08.087Z,3.20
2018-05-06T07:15:08.932Z,3.50
2018-05-06T07:16:09.531Z,3.90
2018-05-06T07:17:10.106Z,3.40
2018-05-06T07:18:10.764Z,3.40
2018-05-06T07:19:11.372Z,3.90
2018-05-06T07:20:11.965Z,3.90
2018-05-06T07:21:12.527Z,3.60
2018-05-06T07:22:13.118Z,3.30
2018-05-06T07:23:13.688Z,3.90
2018-05-06T07:24:14.269Z,3.60
2018-05-06T07:25:14.971Z,3.60
2018-05-06T07:26:15.545Z,3.60
2018-05-06T07:27:16.305Z,3.80
2018-05-06T07:28:16.916Z,3.70
2018-05-06T07:29:17.492Z,3.60
2018-05-06T07:31:18.349Z,3.70
2018-05-06T07:32:18.903Z,3.30
2018-05-06T07:33:19.499Z,3.60
2018-05-06T07:34:20.084Z,3.70
2018-05-06T07:35:20.911Z,3.50
2018-05-06T07:36:21.499Z,3.30
2018-05-06T07:37:22.087Z,3.30
2018-05-06T07:38:22.728Z,3.40
2018-05-06T07:39:23.308Z,3.60
2018-05-06T07:40:23.900Z,3.40
2018-05-06T07:41:24.529Z,3.70
2018-05-06T07:42:25.095Z,3.70
2018-05-06T07:43:25.657Z,3.40
2018-05-06T07:44:26.228Z,3.20
2018-05-06T07:45:26.803Z,3.70
2018-05-06T07:47:27.662Z,3.60
2018-05-06T07:48:28.369Z,3.60
2018-05-06T07:49:28.956Z,3.40
2018-05-06T07:50:29.579Z,3.90
2018-05-06T07:51:30.289Z,3.40
2018-05-06T07:52:30.855Z,3.90
2018-05-06T07:53:31.463Z,4.00
2018-05-06T07:54:32.037Z,3.60
2018-05-06T07:56:32.890Z,3.60
2018-05-06T07:57:34.209Z,3.70
2018-05-06T07:58:34.759Z,4.00
2018-05-06T07:59:35.358Z,3.60
2018-05-06T08:00:35.940Z,4.00
2018-05-06T08:01:36.521Z,3.60
2018-05-06T08:03:37.385Z,3.40
2018-05-06T08:04:37.968Z,3.40
2018-05-06T08:05:38.624Z,3.50
2018-05-06T08:06:40.256Z,3.60
2018-05-06T08:07:40.828Z,4.00
2018-05-06T08:08:41.449Z,4.90
2018-05-06T08:09:42.026Z,4.60
2018-05-06T08:10:42.670Z,3.80
2018-05-06T08:11:43.327Z,4.00
2018-05-06T08:12:43.889Z,3.80
2018-05-06T08:13:44.455Z,3.70
2018-05-06T08:14:45.032Z,3.90
2018-05-06T08:15:45.694Z,3.80
2018-05-06T08:16:46.296Z,3.60
2018-05-06T08:17:46.894Z,3.60
2018-05-06T08:18:47.490Z,3.50
2018-05-06T08:20:48.360Z,3.40
2018-05-06T08:21:48.981Z,3.60
2018-05-06T08:22:49.593Z,3.80
2018-05-06T08:23:50.191Z,3.90
2018-05-06T08:24:50.794Z,3.60
2018-05-06T08:25:51.451Z,3.30
2018-05-06T08:26:52.030Z,3.80
2018-05-06T08:27:52.621Z,3.70
2018-05-06T08:28:53.187Z,3.60
2018-05-06T08:29:53.756Z,3.50
2018-05-06T08:31:54.623Z,3.60
2018-05-06T08:32:55.213Z,3.70
2018-05-06T08:33:55.773Z,3.40
2018-05-06T08:34:56.348Z,3.60
2018-05-06T08:35:56.945Z,3.50
2018-05-06T08:36:57.544Z,3.20
2018-05-06T08:37:58.132Z,3.70
2018-05-06T08:38:58.703Z,3.70
2018-05-06T08:39:59.359Z,3.20
2018-05-06T08:40:59.941Z,3.30
2018-05-06T08:43:00.785Z,3.70
2018-05-06T08:44:01.432Z,3.80
2018-05-06T08:45:02.085Z,3.80
2018-05-06T08:46:02.721Z,3.70
2018-05-06T08:47:03.275Z,3.70
2018-05-06T08:48:03.881Z,3.50
2018-05-06T08:49:04.494Z,3.60
2018-05-06T08:50:05.064Z,3.90
2018-05-06T08:51:05.673Z,3.50
2018-05-06T08:52:06.328Z,3.60
2018-05-06T08:53:06.901Z,3.60
2018-05-06T08:54:07.474Z,4.00
2018-05-06T08:55:08.040Z,3.70
2018-05-06T08:56:08.603Z,3.50
2018-05-06T08:57:09.206Z,3.50
2018-05-06T08:58:09.794Z,3.90
2018-05-06T08:59:10.376Z,3.80
2018-05-06T09:00:10.939Z,3.70
2018-05-06T09:01:11.547Z,3.30
2018-05-06T09:02:12.122Z,3.60
2018-05-06T09:03:12.763Z,3.60
2018-05-06T09:04:13.345Z,3.50
2018-05-06T09:05:13.926Z,4.00
2018-05-06T09:06:14.526Z,3.50
2018-05-06T09:07:15.090Z,3.60
2018-05-06T09:09:15.959Z,4.00
2018-05-06T09:10:16.536Z,3.70
2018-05-06T09:11:17.156Z,3.80
2018-05-06T09:12:17.742Z,3.90
2018-05-06T09:13:18.356Z,3.50
2018-05-06T09:14:18.911Z,3.50
2018-05-06T09:15:19.551Z,3.80
2018-05-06T09:16:20.115Z,3.30
2018-05-06T09:17:20.748Z,4.00
2018-05-06T09:18:21.328Z,3.40
2018-05-06T09:19:21.895Z,3.70
2018-05-06T09:20:22.487Z,3.80
2018-05-06T09:21:23.082Z,3.70
2018-05-06T09:22:23.662Z,4.00
2018-05-06T09:23:24.242Z,4.00
2018-05-06T09:24:24.845Z,3.70
2018-05-06T09:25:25.522Z,3.90
2018-05-06T09:26:26.106Z,3.70
2018-05-06T09:27:26.710Z,4.00
2018-05-06T09:29:27.545Z,3.70
2018-05-06T09:30:28.186Z,3.80
2018-05-06T09:32:29.099Z,3.80
2018-05-06T09:33:29.724Z,3.80
2018-05-06T09:34:30.317Z,3.80
2018-05-06T09:35:30.905Z,3.80
2018-05-06T09:36:31.484Z,4.10
2018-05-06T09:37:32.386Z,3.90
2018-05-06T09:38:33.005Z,3.80
2018-05-06T09:39:33.614Z,3.90
2018-05-06T09:41:34.473Z,4.00
2018-05-06T09:42:35.117Z,3.40
2018-05-06T09:43:35.712Z,3.80
2018-05-06T09:44:36.306Z,3.70
2018-05-06T09:45:38.727Z,3.80
2018-05-06T09:46:39.941Z,3.80
2018-05-06T09:47:40.617Z,3.70
2018-05-06T09:49:41.441Z,3.60
2018-05-06T09:50:42.038Z,3.80
2018-05-06T09:51:42.680Z,3.90
2018-05-06T09:53:43.607Z,3.80
2018-05-06T09:54:44.207Z,3.30
2018-05-06T09:55:44.774Z,4.10
2018-05-06T09:56:45.352Z,3.60
2018-05-06T09:57:45.929Z,3.90
2018-05-06T09:58:46.491Z,4.10
2018-05-06T09:59:47.065Z,3.80
2018-05-06T10:00:47.630Z,3.80
2018-05-06T10:01:48.350Z,3.50
2018-05-06T10:02:48.976Z,3.70
2018-05-06T10:03:49.573Z,3.90
2018-05-06T10:04:50.182Z,4.20
2018-05-06T10:05:50.765Z,4.10
2018-05-06T10:06:51.397Z,4.00
2018-05-06T10:07:51.970Z,3.80
2018-05-06T10:08:52.562Z,4.00
2018-05-06T10:09:53.167Z,3.60
2018-05-06T10:10:53.751Z,3.50
2018-05-06T10:11:54.387Z,3.70
2018-05-06T10:12:54.978Z,3.80
2018-05-06T10:13:59.905Z,3.40
2018-05-06T10:15:00.507Z,3.70
2018-05-06T10:16:01.111Z,3.90
2018-05-06T10:17:01.764Z,3.40
2018-05-06T10:18:02.339Z,3.40
2018-05-06T10:19:02.977Z,3.20
2018-05-06T10:20:03.575Z,3.70
2018-05-06T10:21:04.153Z,4.00
2018-05-06T10:22:04.760Z,3.70
2018-05-06T10:23:05.349Z,3.80
2018-05-06T10:24:05.949Z,3.80
2018-05-06T10:25:06.574Z,4.00
2018-05-06T10:26:07.234Z,3.90
2018-05-06T10:27:07.793Z,3.90
2018-05-06T10:28:08.476Z,4.00
2018-05-06T10:30:09.379Z,3.90
2018-05-06T10:31:10.128Z,3.80
2018-05-06T10:32:10.721Z,3.80
2018-05-06T10:33:11.314Z,3.70
2018-05-06T10:34:11.877Z,3.80
2018-05-06T10:35:12.460Z,3.50
2018-05-06T10:36:13.050Z,3.70
2018-05-06T10:37:13.641Z,3.80
2018-05-06T10:38:14.197Z,3.80
2018-05-06T10:39:14.833Z,3.90
2018-05-06T10:40:15.439Z,3.60
2018-05-06T10:41:16.024Z,3.70
2018-05-06T10:42:16.667Z,3.50
2018-05-06T10:43:17.294Z,3.60
2018-05-06T10:44:24.413Z,3.80
2018-05-06T10:45:25.050Z,3.70
2018-05-06T10:46:25.648Z,3.20
2018-05-06T10:47:26.256Z,3.90
2018-05-06T10:48:26.900Z,3.60
2018-05-06T10:49:27.507Z,3.50
2018-05-06T10:50:28.197Z,3.60
2018-05-06T10:51:28.765Z,3.40
2018-05-06T10:52:29.387Z,3.60
2018-05-06T10:53:29.973Z,3.40
2018-05-06T10:54:31.273Z,3.30
2018-05-06T10:55:31.870Z,3.30
2018-05-06T10:56:32.459Z,3.50
2018-05-06T10:57:33.032Z,3.80
2018-05-06T10:58:33.611Z,3.40
2018-05-06T10:59:34.218Z,3.50
2018-05-06T11:00:37.566Z,3.80
2018-05-06T11:01:38.209Z,3.60
2018-05-06T11:02:38.957Z,3.90
2018-05-06T11:03:39.569Z,3.40
2018-05-06T11:04:40.175Z,3.60
2018-05-06T11:05:40.782Z,3.60
2018-05-06T11:06:42.000Z,3.60
2018-05-06T11:07:42.634Z,3.30
2018-05-06T11:08:43.208Z,3.30
2018-05-06T11:09:43.840Z,3.40
2018-05-06T11:10:44.409Z,3.30
2018-05-06T11:11:44.991Z,3.30
2018-05-06T11:12:45.574Z,3.80
2018-05-06T11:13:46.152Z,3.20
2018-05-06T11:14:46.740Z,3.50
2018-05-06T11:15:47.346Z,3.40
2018-05-06T11:16:47.962Z,3.20
2018-05-06T11:17:48.617Z,3.10
2018-05-06T11:18:49.242Z,3.50
2018-05-06T11:19:49.804Z,3.50
2018-05-06T11:20:50.389Z,3.30
2018-05-06T11:21:50.954Z,3.50
2018-05-06T11:22:51.570Z,3.30
2018-05-06T11:23:52.140Z,3.40
2018-05-06T11:24:52.711Z,3.50
2018-05-06T11:25:53.257Z,5.00
2018-05-06T11:26:53.847Z,3.80
2018-05-06T11:27:54.502Z,3.70
2018-05-06T11:28:55.085Z,3.40
2018-05-06T11:29:55.730Z,3.40
2018-05-06T11:30:56.308Z,3.60
2018-05-06T11:31:56.908Z,3.50
2018-05-06T11:32:57.503Z,4.10
2018-05-06T11:33:58.097Z,3.90
2018-05-06T11:34:58.688Z,3.70
2018-05-06T11:35:59.284Z,3.80
2018-05-06T11:36:59.941Z,3.50
2018-05-06T11:38:00.550Z,3.50
2018-05-06T11:39:01.118Z,3.40
2018-05-06T11:40:01.793Z,3.10
2018-05-06T11:41:02.406Z,3.60
2018-05-06T11:42:02.995Z,3.10
2018-05-06T11:43:12.419Z,3.20
2018-05-06T11:44:16.096Z,3.50
2018-05-06T11:45:16.788Z,3.50
2018-05-06T11:46:17.410Z,3.20
2018-05-06T11:47:18.039Z,3.40
2018-05-06T11:48:18.707Z,3.20
2018-05-06T11:49:19.358Z,3.10
2018-05-06T11:50:19.946Z,3.10
2018-05-06T11:51:20.582Z,3.10
2018-05-06T11:52:21.200Z,3.30
2018-05-06T11:53:21.798Z,3.10
2018-05-06T11:54:22.431Z,3.20
2018-05-06T11:55:23.011Z,3.30
2018-05-06T11:56:23.706Z,3.40
2018-05-06T11:57:42.984Z,3.40
2018-05-06T11:58:44.663Z,3.60
2018-05-06T11:59:45.244Z,3.40
2018-05-06T12:00:45.896Z,3.30
2018-05-06T12:01:46.473Z,3.10
2018-05-06T12:02:50.233Z,3.10
2018-05-06T12:03:50.858Z,3.10
2018-05-06T12:04:51.427Z,3.40
2018-05-06T12:05:51.987Z,3.20
2018-05-06T12:06:52.622Z,3.20
2018-05-06T12:07:53.280Z,2.90
2018-05-06T12:08:53.912Z,3.20
2018-05-06T12:09:54.527Z,3.20
2018-05-06T12:10:55.120Z,3.20
2018-05-06T12:11:55.684Z,3.30
2018-05-06T12:12:56.247Z,3.20
2018-05-06T12:13:56.828Z,3.40
2018-05-06T12:14:57.423Z,3.30
2018-05-06T12:15:57.989Z,3.20
2018-05-06T12:16:58.690Z,3.40
2018-05-06T12:17:59.281Z,3.20
2018-05-06T12:18:59.902Z,3.20
2018-05-06T12:20:00.482Z,3.50
2018-05-06T12:21:01.091Z,3.20
2018-05-06T12:22:02.483Z,3.10
2018-05-06T12:23:03.116Z,3.50
2018-05-06T12:24:03.799Z,3.10
2018-05-06T12:25:04.371Z,3.50
2018-05-06T12:26:04.991Z,3.50
2018-05-06T12:27:05.576Z,3.40
2018-05-06T12:28:06.142Z,3.10
2018-05-06T12:29:06.720Z,3.30
2018-05-06T12:30:07.308Z,3.30
2018-05-06T12:31:07.899Z,3.60
2018-05-06T12:32:08.472Z,3.50
2018-05-06T12:33:09.065Z,3.30
2018-05-06T12:34:09.671Z,3.30
2018-05-06T12:35:10.241Z,3.40
2018-05-06T12:36:13.897Z,3.70
2018-05-06T12:37:14.707Z,3.70
2018-05-06T12:38:15.284Z,3.30
2018-05-06T12:39:15.893Z,3.20
2018-05-06T12:40:16.524Z,3.90
2018-05-06T12:41:17.146Z,3.50
2018-05-06T12:42:17.743Z,3.70
2018-05-06T12:43:18.430Z,3.60
2018-05-06T12:44:19.737Z,3.70
2018-05-06T12:45:20.401Z,3.80
2018-05-06T12:46:21.108Z,3.60
2018-05-06T12:47:21.690Z,3.30
2018-05-06T12:48:22.348Z,3.20
2018-05-06T12:49:23.026Z,3.50
2018-05-06T12:50:23.646Z,3.40
2018-05-06T12:51:26.812Z,3.20
2018-05-06T12:52:27.446Z,3.30
2018-05-06T12:53:28.028Z,3.30
2018-05-06T12:54:28.643Z,3.20
2018-05-06T12:55:29.899Z,3.60
2018-05-06T12:56:30.552Z,3.20
2018-05-06T12:57:31.170Z,3.50
2018-05-06T12:58:31.787Z,3.10
2018-05-06T12:59:32.413Z,3.80
2018-05-06T13:00:32.979Z,3.50
2018-05-06T13:01:33.732Z,3.30
2018-05-06T13:02:34.326Z,5.20
2018-05-06T13:03:34.901Z,5.70
2018-05-06T13:04:35.501Z,3.60
2018-05-06T13:05:36.179Z,5.40
2018-05-06T13:06:45.175Z,5.50
2018-05-06T13:07:45.781Z,3.60
2018-05-06T13:08:46.437Z,3.60
2018-05-06T13:09:47.120Z,3.50
2018-05-06T13:10:47.706Z,6.00
2018-05-06T13:11:48.317Z,5.20
2018-05-06T13:12:48.903Z,6.00
2018-05-06T13:13:49.502Z,6.00
2018-05-06T13:14:50.124Z,3.60
2018-05-06T13:15:50.695Z,3.70
2018-05-06T13:16:51.364Z,4.80
2018-05-06T13:17:52.087Z,4.50
2018-05-06T13:18:52.687Z,6.50
2018-05-06T13:19:53.371Z,3.90
2018-05-06T13:20:53.960Z,4.10
2018-05-06T13:21:54.656Z,4.00
2018-05-06T13:22:55.235Z,3.30
2018-05-06T13:23:55.938Z,3.90
2018-05-06T13:24:56.567Z,4.30
2018-05-06T13:25:57.191Z,4.60
2018-05-06T13:26:57.799Z,4.00
2018-05-06T13:27:58.551Z,3.60
2018-05-06T13:28:59.158Z,3.50
2018-05-06T13:29:59.796Z,3.50
2018-05-06T13:31:00.445Z,3.50
2018-05-06T13:32:01.032Z,3.20
2018-05-06T13:34:01.939Z,3.20
2018-05-06T13:35:02.559Z,3.20
2018-05-06T13:36:03.216Z,3.50
2018-05-06T13:37:03.795Z,3.20
2018-05-06T13:38:04.385Z,3.40
2018-05-06T13:39:05.554Z,3.40
2018-05-06T13:40:06.201Z,3.50
2018-05-06T13:41:06.805Z,3.30
2018-05-06T13:42:07.400Z,3.30
2018-05-06T13:43:08.035Z,3.20
2018-05-06T13:44:08.622Z,3.10
2018-05-06T13:45:09.243Z,3.30
2018-05-06T13:46:09.935Z,3.00
2018-05-06T13:47:10.546Z,3.40
2018-05-06T13:49:11.470Z,3.40
2018-05-06T13:50:12.267Z,3.40
2018-05-06T13:51:12.746Z,3.30
2018-05-06T13:53:13.635Z,3.20
2018-05-06T13:54:14.228Z,3.10
2018-05-06T13:55:14.853Z,3.30
2018-05-06T13:56:15.454Z,3.80
2018-05-06T13:57:16.082Z,3.00
2018-05-06T13:58:16.706Z,2.80
2018-05-06T13:59:17.306Z,2.60
2018-05-06T14:00:17.875Z,2.80
2018-05-06T14:01:18.491Z,2.90
2018-05-06T14:02:19.087Z,2.90
2018-05-06T14:03:19.681Z,2.90
2018-05-06T14:04:20.332Z,2.80
2018-05-06T14:05:20.916Z,3.30
2018-05-06T14:06:21.519Z,3.60
2018-05-06T14:07:22.093Z,3.10
2018-05-06T14:08:22.662Z,3.60
2018-05-06T14:09:23.357Z,3.20
2018-05-06T14:10:23.968Z,2.70
2018-05-06T14:11:24.542Z,2.80
2018-05-06T14:12:27.286Z,2.70
2018-05-06T14:13:27.989Z,2.60
2018-05-06T14:14:28.856Z,2.50
2018-05-06T14:15:29.566Z,2.50
2018-05-06T14:16:30.140Z,2.70
2018-05-06T14:17:30.821Z,2.90
2018-05-06T14:18:31.391Z,2.60
2018-05-06T14:19:32.119Z,2.80
2018-05-06T14:20:32.740Z,2.60
2018-05-06T14:21:33.319Z,3.30
2018-05-06T14:22:33.893Z,3.10
2018-05-06T14:23:34.479Z,3.30
2018-05-06T14:24:35.113Z,4.40
2018-05-06T14:25:35.904Z,4.80
2018-05-06T14:26:36.547Z,3.50
2018-05-06T14:27:37.181Z,6.30
2018-05-06T14:28:37.760Z,3.90
2018-05-06T14:29:38.355Z,3.00
2018-05-06T14:30:38.949Z,3.00
2018-05-06T14:31:39.587Z,2.60
2018-05-06T14:32:42.202Z,3.00
2018-05-06T14:33:42.781Z,2.90
2018-05-06T14:34:43.417Z,3.70
2018-05-06T14:35:44.044Z,2.60
2018-05-06T14:36:44.659Z,2.50
2018-05-06T14:37:45.271Z,2.70
2018-05-06T14:38:45.875Z,2.70
2018-05-06T14:39:46.502Z,2.40
2018-05-06T14:40:47.156Z,2.20
2018-05-06T14:41:47.769Z,2.20
2018-05-06T14:42:48.442Z,2.10
2018-05-06T14:43:49.025Z,2.50
2018-05-06T14:45:49.906Z,2.20
2018-05-06T14:46:50.507Z,2.20
2018-05-06T14:47:51.158Z,2.50
2018-05-06T14:48:51.752Z,2.30
2018-05-06T14:49:52.776Z,2.50
2018-05-06T14:50:53.407Z,2.40
2018-05-06T14:51:54.033Z,2.60
2018-05-06T14:52:54.620Z,2.60
2018-05-06T14:53:55.240Z,2.20
2018-05-06T14:54:55.976Z,2.40
2018-05-06T14:55:56.702Z,2.30
2018-05-06T14:56:57.387Z,2.50
2018-05-06T14:57:57.969Z,2.30
2018-05-06T14:58:58.586Z,2.20
2018-05-06T14:59:59.309Z,2.30
2018-05-06T15:02:00.226Z,2.50
2018-05-06T15:03:00.829Z,2.30
2018-05-06T15:04:01.410Z,2.50
2018-05-06T15:05:01.988Z,2.70
2018-05-06T15:06:02.644Z,2.30
2018-05-06T15:07:03.301Z,2.20
2018-05-06T15:08:04.088Z,2.40
2018-05-06T15:09:04.645Z,2.30
2018-05-06T15:10:05.269Z,2.40
2018-05-06T15:11:05.872Z,2.30
2018-05-06T15:12:06.470Z,2.40
2018-05-06T15:13:07.031Z,2.30
2018-05-06T15:14:07.635Z,2.70
2018-05-06T15:15:08.272Z,2.50
2018-05-06T15:16:08.969Z,2.20
2018-05-06T15:18:09.839Z,2.20
2018-05-06T15:19:10.426Z,2.40
2018-05-06T15:20:11.074Z,2.30
2018-05-06T15:21:11.816Z,2.30
2018-05-06T15:22:12.479Z,2.30
2018-05-06T15:23:13.955Z,2.60
2018-05-06T15:24:14.538Z,2.20
2018-05-06T15:25:15.127Z,2.30
2018-05-06T15:26:15.760Z,2.70
2018-05-06T15:27:16.397Z,2.40
2018-05-06T15:28:16.984Z,2.50
2018-05-06T15:29:18.227Z,2.50
2018-05-06T15:30:18.851Z,2.20
2018-05-06T15:31:19.444Z,2.10
2018-05-06T15:32:20.066Z,2.10
2018-05-06T15:33:20.783Z,2.40
2018-05-06T15:34:21.389Z,2.30
2018-05-06T15:35:22.056Z,2.20
2018-05-06T15:36:22.700Z,2.30
2018-05-06T15:37:24.102Z,2.40
2018-05-06T15:38:24.720Z,2.20
2018-05-06T15:39:25.306Z,2.20
2018-05-06T15:40:25.929Z,2.40
2018-05-06T15:41:26.494Z,2.40
2018-05-06T15:42:27.691Z,2.20
2018-05-06T15:43:28.954Z,11.20
2018-05-06T15:44:29.531Z,6.60
2018-05-06T15:45:30.097Z,3.60
2018-05-06T15:46:30.715Z,3.10
2018-05-06T15:47:31.291Z,2.80
2018-05-06T15:48:31.852Z,2.30
2018-05-06T15:49:32.426Z,5.20
2018-05-06T15:50:33.140Z,5.60
2018-05-06T15:51:33.719Z,10.60
2018-05-06T15:52:34.335Z,4.20
2018-05-06T15:53:34.939Z,6.50
2018-05-06T15:54:35.553Z,4.70
2018-05-06T15:56:36.495Z,3.10
2018-05-06T15:58:37.404Z,2.50
2018-05-06T15:59:38.061Z,2.60
2018-05-06T16:00:38.638Z,2.50
2018-05-06T16:01:39.230Z,2.30
2018-05-06T16:02:39.834Z,2.60
2018-05-06T16:03:40.432Z,2.90
2018-05-06T16:04:41.046Z,3.40
2018-05-06T16:05:41.699Z,3.90
2018-05-06T16:06:42.288Z,3.70
2018-05-06T16:07:42.882Z,3.20
2018-05-06T16:08:43.490Z,5.50
2018-05-06T16:09:44.082Z,8.60
2018-05-06T16:10:44.785Z,5.90
2018-05-06T16:11:45.411Z,4.00
2018-05-06T16:12:46.543Z,3.40
2018-05-06T16:13:47.119Z,3.10
2018-05-06T16:14:47.698Z,2.80
2018-05-06T16:15:48.288Z,2.70
2018-05-06T16:16:48.887Z,2.80
2018-05-06T16:17:49.568Z,2.40
2018-05-06T16:18:50.155Z,2.40
2018-05-06T16:19:50.770Z,2.70
2018-05-06T16:20:51.417Z,2.60
2018-05-06T16:21:53.009Z,2.40
2018-05-06T16:22:53.650Z,2.40
2018-05-06T16:23:54.487Z,2.50
2018-05-06T16:25:07.332Z,2.70
2018-05-06T16:26:07.923Z,2.20
2018-05-06T16:27:08.521Z,2.30
2018-05-06T16:28:09.116Z,2.40
2018-05-06T16:29:09.705Z,2.50
2018-05-06T16:31:10.662Z,2.40
2018-05-06T16:32:11.252Z,2.40
2018-05-06T16:33:11.875Z,2.70
2018-05-06T16:34:12.487Z,2.40
2018-05-06T16:35:13.188Z,2.30
2018-05-06T16:36:13.792Z,2.30
2018-05-06T16:37:14.448Z,2.20
2018-05-06T16:38:17.943Z,2.20
2018-05-06T16:39:18.609Z,2.30
2018-05-06T16:40:19.229Z,2.30
2018-05-06T16:41:19.828Z,2.60
2018-05-06T16:42:20.391Z,2.20
2018-05-06T16:43:20.967Z,2.50
2018-05-06T16:44:38.530Z,2.50
2018-05-06T16:46:39.519Z,2.10
2018-05-06T16:47:40.116Z,2.20
2018-05-06T16:48:40.702Z,2.30
2018-05-06T16:49:41.366Z,2.10
2018-05-06T16:50:41.997Z,2.10
2018-05-06T16:51:42.734Z,2.30
2018-05-06T16:52:43.426Z,2.50
2018-05-06T16:53:44.014Z,2.30
2018-05-06T16:54:44.656Z,2.40
2018-05-06T16:55:45.253Z,2.20
2018-05-06T16:56:45.854Z,2.10
2018-05-06T16:57:46.420Z,2.40
2018-05-06T16:58:47.028Z,2.30
2018-05-06T16:59:47.630Z,2.20
2018-05-06T17:00:48.244Z,2.20
2018-05-06T17:01:48.855Z,2.30
2018-05-06T17:02:49.471Z,2.40
2018-05-06T17:03:50.042Z,2.30
2018-05-06T17:05:50.934Z,3.00
2018-05-06T17:06:51.562Z,2.40
2018-05-06T17:07:52.194Z,2.10
2018-05-06T17:08:52.820Z,2.20
2018-05-06T17:10:11.388Z,2.20
2018-05-06T17:11:12.769Z,2.10
2018-05-06T17:12:26.575Z,2.10
2018-05-06T17:13:27.203Z,2.10
2018-05-06T17:14:27.870Z,2.10
2018-05-06T17:15:28.490Z,2.10
2018-05-06T17:16:29.072Z,2.20
2018-05-06T17:17:29.673Z,2.10
2018-05-06T17:18:30.238Z,1.90
2018-05-06T17:19:30.865Z,2.10
2018-05-06T17:20:31.498Z,2.30
2018-05-06T17:21:32.114Z,3.10
2018-05-06T17:22:32.718Z,2.90
2018-05-06T17:23:33.346Z,2.00
2018-05-06T17:24:33.909Z,2.00
2018-05-06T17:26:34.783Z,3.70
2018-05-06T17:27:36.102Z,4.40
2018-05-06T17:28:36.716Z,2.10
2018-05-06T17:30:37.564Z,2.20
2018-05-06T17:32:38.497Z,2.30
2018-05-06T17:33:39.096Z,2.10
2018-05-06T17:34:39.665Z,2.20
2018-05-06T17:36:40.527Z,2.00
2018-05-06T17:37:41.111Z,1.90
2018-05-06T17:38:41.734Z,2.10
2018-05-06T17:39:42.351Z,2.00
2018-05-06T17:40:42.953Z,2.10
2018-05-06T17:41:43.524Z,2.40
2018-05-06T17:42:44.149Z,2.20
2018-05-06T17:43:44.753Z,2.00
2018-05-06T17:44:45.333Z,2.30
2018-05-06T17:45:45.920Z,1.90
2018-05-06T17:46:46.539Z,2.00
2018-05-06T17:47:47.186Z,2.20
2018-05-06T17:48:47.787Z,2.00
2018-05-06T17:49:48.351Z,1.90
2018-05-06T17:50:48.987Z,1.90
2018-05-06T17:51:49.631Z,2.10
2018-05-06T17:52:50.232Z,2.10
2018-05-06T17:53:50.907Z,2.10
2018-05-06T17:54:51.501Z,2.10
2018-05-06T17:55:52.080Z,2.00
2018-05-06T17:56:52.658Z,2.60
2018-05-06T17:57:53.257Z,2.30
2018-05-06T17:59:54.148Z,2.10
2018-05-06T18:00:54.775Z,2.00
2018-05-06T18:01:55.491Z,2.00
2018-05-06T18:02:56.075Z,2.20
2018-05-06T18:03:56.688Z,2.00
2018-05-06T18:04:57.261Z,2.00
2018-05-06T18:05:57.870Z,2.20
2018-05-06T18:06:58.425Z,2.20
2018-05-06T18:07:59.037Z,2.20
2018-05-06T18:08:59.637Z,2.00
2018-05-06T18:10:00.214Z,1.80
2018-05-06T18:11:00.874Z,2.10
2018-05-06T18:12:01.482Z,1.90
2018-05-06T18:13:02.061Z,2.10
2018-05-06T18:14:02.688Z,2.10
2018-05-06T18:15:03.299Z,2.00
2018-05-06T18:16:03.988Z,2.40
2018-05-06T18:17:04.601Z,2.20
2018-05-06T18:18:05.200Z,1.90
2018-05-06T18:19:05.834Z,1.90
2018-05-06T18:20:06.413Z,2.00
2018-05-06T18:21:07.027Z,1.90
2018-05-06T18:22:07.667Z,2.30
2018-05-06T18:24:08.516Z,1.90
2018-05-06T18:26:09.395Z,2.20
2018-05-06T18:27:10.038Z,2.20
2018-05-06T18:28:10.653Z,2.00
2018-05-06T18:29:11.252Z,2.20
2018-05-06T18:30:11.938Z,1.90
2018-05-06T18:31:13.508Z,2.10
2018-05-06T18:32:14.141Z,2.10
2018-05-06T18:33:14.781Z,2.20
2018-05-06T18:34:16.186Z,1.90
2018-05-06T18:35:16.825Z,2.40
2018-05-06T18:36:17.442Z,1.90
2018-05-06T18:37:18.043Z,2.20
2018-05-06T18:38:18.617Z,2.30
2018-05-06T18:39:19.203Z,2.20
2018-05-06T18:40:19.830Z,2.00
2018-05-06T18:41:20.472Z,1.90
2018-05-06T18:42:21.070Z,2.20
2018-05-06T18:43:21.683Z,2.40
2018-05-06T18:44:22.264Z,2.30
2018-05-06T18:45:22.958Z,2.30
2018-05-06T18:46:23.626Z,2.30
2018-05-06T18:47:24.252Z,2.20
2018-05-06T18:48:24.846Z,2.40
2018-05-06T18:49:25.447Z,2.30
2018-05-06T18:50:26.072Z,2.30
2018-05-06T18:51:26.674Z,2.50
2018-05-06T18:52:27.350Z,2.20
2018-05-06T18:53:27.996Z,2.60
2018-05-06T18:54:28.592Z,2.40
2018-05-06T18:55:29.206Z,2.20
2018-05-06T18:56:29.785Z,2.30
2018-05-06T18:57:30.387Z,2.30
2018-05-06T18:58:31.085Z,2.50
2018-05-06T18:59:31.653Z,2.20
2018-05-06T19:00:32.280Z,2.20
2018-05-06T19:01:33.458Z,2.40
2018-05-06T19:02:34.064Z,2.20
2018-05-06T19:03:34.732Z,2.40
2018-05-06T19:04:35.347Z,2.40
2018-05-06T19:05:35.973Z,2.30
2018-05-06T19:06:36.624Z,2.60
2018-05-06T19:07:37.300Z,2.50
2018-05-06T19:09:38.222Z,2.30
2018-05-06T19:10:38.876Z,2.40
2018-05-06T19:11:39.475Z,2.20
2018-05-06T19:12:40.074Z,2.00
2018-05-06T19:13:40.666Z,2.50
2018-05-06T19:14:41.300Z,2.00
2018-05-06T19:15:41.890Z,2.10
2018-05-06T19:16:42.564Z,2.20
2018-05-06T19:17:43.180Z,2.30
2018-05-06T19:18:43.801Z,2.30
2018-05-06T19:19:44.362Z,2.00
2018-05-06T19:20:44.950Z,2.40
2018-05-06T19:21:45.568Z,2.30
2018-05-06T19:22:46.170Z,2.40
2018-05-06T19:23:46.785Z,2.30
2018-05-06T19:24:47.632Z,2.40
2018-05-06T19:25:48.263Z,2.40
2018-05-06T19:26:48.960Z,2.30
2018-05-06T19:27:49.599Z,2.50
2018-05-06T19:28:50.213Z,2.70
2018-05-06T19:29:50.791Z,2.20
2018-05-06T19:30:51.398Z,2.50
2018-05-06T19:31:51.979Z,2.20
2018-05-06T19:32:52.702Z,2.70
2018-05-06T19:33:53.329Z,2.50
2018-05-06T19:34:53.898Z,2.60
2018-05-06T19:35:54.472Z,2.70
2018-05-06T19:36:55.155Z,2.40
2018-05-06T19:37:55.762Z,2.40
2018-05-06T19:38:56.395Z,2.40
2018-05-06T19:39:57.022Z,2.60
2018-05-06T19:40:57.690Z,2.80
2018-05-06T19:41:58.285Z,2.60
2018-05-06T19:42:58.883Z,2.80
2018-05-06T19:43:59.466Z,2.30
2018-05-06T19:45:00.091Z,2.40
2018-05-06T19:46:00.675Z,2.40
2018-05-06T19:47:01.305Z,2.30
2018-05-06T19:48:01.885Z,2.30
2018-05-06T19:49:02.536Z,2.30
2018-05-06T19:50:03.211Z,2.70
2018-05-06T19:51:03.846Z,2.40
2018-05-06T19:52:04.482Z,2.30
2018-05-06T19:53:05.062Z,2.10
2018-05-06T19:54:05.644Z,2.60
2018-05-06T19:55:06.225Z,2.50
2018-05-06T19:56:06.919Z,2.30
2018-05-06T19:57:07.525Z,2.50
2018-05-06T19:58:08.668Z,2.50
2018-05-06T19:59:09.240Z,2.30
2018-05-06T20:00:09.845Z,2.30
2018-05-06T20:01:10.445Z,2.30
2018-05-06T20:02:11.045Z,2.40
2018-05-06T20:03:11.707Z,2.00
2018-05-06T20:04:12.348Z,2.20
2018-05-06T20:05:12.908Z,2.00
2018-05-06T20:06:13.517Z,2.10
2018-05-06T20:07:14.122Z,2.10
2018-05-06T20:08:14.704Z,1.90
2018-05-06T20:10:15.609Z,2.00
2018-05-06T20:11:16.186Z,2.00
2018-05-06T20:12:17.387Z,1.90
2018-05-06T20:13:17.995Z,1.90
2018-05-06T20:14:18.585Z,1.90
2018-05-06T20:15:19.185Z,2.10
2018-05-06T20:16:19.924Z,2.00
2018-05-06T20:17:20.519Z,2.00
2018-05-06T20:18:21.086Z,2.20
2018-05-06T20:19:21.714Z,2.00
2018-05-06T20:20:22.397Z,2.30
2018-05-06T20:21:22.952Z,2.30
2018-05-06T20:23:23.834Z,2.00
2018-05-06T20:24:24.404Z,2.00
2018-05-06T20:25:24.982Z,2.40
2018-05-06T20:26:25.574Z,2.10
2018-05-06T20:27:26.314Z,2.40
2018-05-06T20:29:27.191Z,2.10
2018-05-06T20:30:27.837Z,2.10
2018-05-06T20:31:28.643Z,2.10